sensor_id;sensor_type;location;lat;lon;timestamp;pressure;altitude;pressure_sealevel;temperature
75822;BMP180;64454;51.984;9.838;2023-04-06T00:00:33;100605.00;;;1.70
75822;BMP180;64454;51.984;9.838;2023-04-06T00:03:00;100592.00;;;2.00
75822;BMP180;64454;51.984;9.838;2023-04-06T00:05:27;100592.00;;;2.30
75822;BMP180;64454;51.984;9.838;2023-04-06T00:07:57;100596.00;;;2.40
75822;BMP180;64454;51.984;9.838;2023-04-06T00:10:25;100582.00;;;2.10
75822;BMP180;64454;51.984;9.838;2023-04-06T00:12:52;100590.00;;;2.10
75822;BMP180;64454;51.984;9.838;2023-04-06T00:15:19;100587.00;;;2.00
75822;BMP180;64454;51.984;9.838;2023-04-06T00:17:46;100587.00;;;2.20
75822;BMP180;64454;51.984;9.838;2023-04-06T00:20:12;100579.00;;;1.90
75822;BMP180;64454;51.984;9.838;2023-04-06T00:22:39;100587.00;;;1.70
75822;BMP180;64454;51.984;9.838;2023-04-06T00:25:08;100578.00;;;2.10
75822;BMP180;64454;51.984;9.838;2023-04-06T00:27:37;100572.00;;;2.10
75822;BMP180;64454;51.984;9.838;2023-04-06T00:30:05;100580.00;;;1.90
75822;BMP180;64454;51.984;9.838;2023-04-06T00:32:33;100570.00;;;2.30
75822;BMP180;64454;51.984;9.838;2023-04-06T00:35:02;100579.00;;;2.00
75822;BMP180;64454;51.984;9.838;2023-04-06T00:37:29;100571.00;;;2.10
75822;BMP180;64454;51.984;9.838;2023-04-06T00:39:56;100565.00;;;2.20
75822;BMP180;64454;51.984;9.838;2023-04-06T00:42:24;100554.00;;;2.00
75822;BMP180;64454;51.984;9.838;2023-04-06T00:44:54;100560.00;;;1.80
75822;BMP180;64454;51.984;9.838;2023-04-06T00:47:21;100557.00;;;1.60
75822;BMP180;64454;51.984;9.838;2023-04-06T00:49:49;100562.00;;;1.50
75822;BMP180;64454;51.984;9.838;2023-04-06T00:52:17;100555.00;;;1.30
75822;BMP180;64454;51.984;9.838;2023-04-06T00:54:44;100546.00;;;1.40
75822;BMP180;64454;51.984;9.838;2023-04-06T00:57:11;100552.00;;;1.40
75822;BMP180;64454;51.984;9.838;2023-04-06T00:59:39;100554.00;;;1.60
75822;BMP180;64454;51.984;9.838;2023-04-06T01:02:08;100545.00;;;1.40
75822;BMP180;64454;51.984;9.838;2023-04-06T01:04:35;100547.00;;;1.60
75822;BMP180;64454;51.984;9.838;2023-04-06T01:07:02;100545.00;;;1.30
75822;BMP180;64454;51.984;9.838;2023-04-06T01:09:29;100541.00;;;1.60
75822;BMP180;64454;51.984;9.838;2023-04-06T01:11:56;100533.00;;;1.20
75822;BMP180;64454;51.984;9.838;2023-04-06T01:14:24;100534.00;;;1.70
75822;BMP180;64454;51.984;9.838;2023-04-06T01:16:52;100534.00;;;1.60
75822;BMP180;64454;51.984;9.838;2023-04-06T01:19:21;100534.00;;;1.70
75822;BMP180;64454;51.984;9.838;2023-04-06T01:21:49;100531.00;;;0.90
75822;BMP180;64454;51.984;9.838;2023-04-06T01:24:21;100523.00;;;1.30
75822;BMP180;64454;51.984;9.838;2023-04-06T01:26:48;100516.00;;;1.60
75822;BMP180;64454;51.984;9.838;2023-04-06T01:29:15;100527.00;;;1.80
75822;BMP180;64454;51.984;9.838;2023-04-06T01:31:42;100510.00;;;1.70
75822;BMP180;64454;51.984;9.838;2023-04-06T01:34:09;100528.00;;;0.90
75822;BMP180;64454;51.984;9.838;2023-04-06T01:36:36;100523.00;;;1.30
75822;BMP180;64454;51.984;9.838;2023-04-06T01:39:03;100524.00;;;1.40
75822;BMP180;64454;51.984;9.838;2023-04-06T01:41:31;100517.00;;;1.60
75822;BMP180;64454;51.984;9.838;2023-04-06T01:43:58;100520.00;;;1.50
75822;BMP180;64454;51.984;9.838;2023-04-06T01:46:25;100515.00;;;1.40
75822;BMP180;64454;51.984;9.838;2023-04-06T01:48:51;100523.00;;;0.90
75822;BMP180;64454;51.984;9.838;2023-04-06T01:51:18;100520.00;;;1.20
75822;BMP180;64454;51.984;9.838;2023-04-06T01:53:45;100517.00;;;1.30
75822;BMP180;64454;51.984;9.838;2023-04-06T01:56:13;100511.00;;;1.70
75822;BMP180;64454;51.984;9.838;2023-04-06T01:58:42;100514.00;;;0.90
75822;BMP180;64454;51.984;9.838;2023-04-06T02:01:08;100514.00;;;1.00
75822;BMP180;64454;51.984;9.838;2023-04-06T02:03:35;100504.00;;;1.20
75822;BMP180;64454;51.984;9.838;2023-04-06T02:06:02;100505.00;;;1.10
75822;BMP180;64454;51.984;9.838;2023-04-06T02:08:30;100509.00;;;1.30
75822;BMP180;64454;51.984;9.838;2023-04-06T02:10:56;100505.00;;;1.40
75822;BMP180;64454;51.984;9.838;2023-04-06T02:13:23;100503.00;;;1.50
75822;BMP180;64454;51.984;9.838;2023-04-06T02:15:51;100508.00;;;1.20
75822;BMP180;64454;51.984;9.838;2023-04-06T02:18:18;100502.00;;;1.30
75822;BMP180;64454;51.984;9.838;2023-04-06T02:20:45;100506.00;;;1.40
75822;BMP180;64454;51.984;9.838;2023-04-06T02:23:12;100502.00;;;1.20
75822;BMP180;64454;51.984;9.838;2023-04-06T02:25:39;100501.00;;;1.20
75822;BMP180;64454;51.984;9.838;2023-04-06T02:28:06;100503.00;;;1.10
75822;BMP180;64454;51.984;9.838;2023-04-06T02:30:33;100515.00;;;0.90
75822;BMP180;64454;51.984;9.838;2023-04-06T02:33:02;100506.00;;;0.50
75822;BMP180;64454;51.984;9.838;2023-04-06T02:35:30;100507.00;;;0.80
75822;BMP180;64454;51.984;9.838;2023-04-06T02:37:57;100498.00;;;0.80
75822;BMP180;64454;51.984;9.838;2023-04-06T02:40:24;100498.00;;;0.70
75822;BMP180;64454;51.984;9.838;2023-04-06T02:42:51;100500.00;;;0.80
75822;BMP180;64454;51.984;9.838;2023-04-06T02:45:18;100497.00;;;1.20
75822;BMP180;64454;51.984;9.838;2023-04-06T02:47:45;100499.00;;;1.20
75822;BMP180;64454;51.984;9.838;2023-04-06T02:50:16;100493.00;;;1.20
75822;BMP180;64454;51.984;9.838;2023-04-06T02:52:43;100507.00;;;0.70
75822;BMP180;64454;51.984;9.838;2023-04-06T02:55:10;100496.00;;;0.70
75822;BMP180;64454;51.984;9.838;2023-04-06T02:57:36;100497.00;;;0.80
75822;BMP180;64454;51.984;9.838;2023-04-06T03:00:07;100500.00;;;0.90
75822;BMP180;64454;51.984;9.838;2023-04-06T03:02:34;100495.00;;;0.80
75822;BMP180;64454;51.984;9.838;2023-04-06T03:05:02;100492.00;;;0.50
75822;BMP180;64454;51.984;9.838;2023-04-06T03:07:30;100484.00;;;0.40
75822;BMP180;64454;51.984;9.838;2023-04-06T03:09:57;100486.00;;;0.80
75822;BMP180;64454;51.984;9.838;2023-04-06T03:12:24;100485.00;;;0.80
75822;BMP180;64454;51.984;9.838;2023-04-06T03:14:50;100487.00;;;0.60
75822;BMP180;64454;51.984;9.838;2023-04-06T03:17:17;100484.00;;;0.70
75822;BMP180;64454;51.984;9.838;2023-04-06T03:19:44;100483.00;;;0.60
75822;BMP180;64454;51.984;9.838;2023-04-06T03:22:11;100488.00;;;0.80
75822;BMP180;64454;51.984;9.838;2023-04-06T03:24:39;100488.00;;;0.50
75822;BMP180;64454;51.984;9.838;2023-04-06T03:27:06;100486.00;;;0.70
75822;BMP180;64454;51.984;9.838;2023-04-06T03:29:33;100489.00;;;0.70
75822;BMP180;64454;51.984;9.838;2023-04-06T03:31:59;100483.00;;;0.70
75822;BMP180;64454;51.984;9.838;2023-04-06T03:34:26;100483.00;;;0.30
75822;BMP180;64454;51.984;9.838;2023-04-06T03:36:53;100486.00;;;0.40
75822;BMP180;64454;51.984;9.838;2023-04-06T03:39:20;100483.00;;;0.70
75822;BMP180;64454;51.984;9.838;2023-04-06T03:41:50;100477.00;;;0.70
75822;BMP180;64454;51.984;9.838;2023-04-06T03:44:19;100479.00;;;0.70
75822;BMP180;64454;51.984;9.838;2023-04-06T03:46:47;100484.00;;;0.80
75822;BMP180;64454;51.984;9.838;2023-04-06T03:49:15;100482.00;;;0.30
75822;BMP180;64454;51.984;9.838;2023-04-06T03:51:42;100486.00;;;0.60
75822;BMP180;64454;51.984;9.838;2023-04-06T03:54:09;100477.00;;;0.60
75822;BMP180;64454;51.984;9.838;2023-04-06T03:56:35;100479.00;;;0.70
75822;BMP180;64454;51.984;9.838;2023-04-06T03:59:04;100483.00;;;0.30
75822;BMP180;64454;51.984;9.838;2023-04-06T04:01:31;100477.00;;;0.50
75822;BMP180;64454;51.984;9.838;2023-04-06T04:03:58;100480.00;;;0.30
75822;BMP180;64454;51.984;9.838;2023-04-06T04:06:25;100483.00;;;0.40
75822;BMP180;64454;51.984;9.838;2023-04-06T04:08:52;100484.00;;;0.40
75822;BMP180;64454;51.984;9.838;2023-04-06T04:11:18;100486.00;;;0.60
75822;BMP180;64454;51.984;9.838;2023-04-06T04:13:45;100487.00;;;0.40
75822;BMP180;64454;51.984;9.838;2023-04-06T04:16:13;100488.00;;;0.50
75822;BMP180;64454;51.984;9.838;2023-04-06T04:18:40;100486.00;;;0.10
75822;BMP180;64454;51.984;9.838;2023-04-06T04:21:09;100492.00;;;-0.10
75822;BMP180;64454;51.984;9.838;2023-04-06T04:23:35;100494.00;;;0.40
75822;BMP180;64454;51.984;9.838;2023-04-06T04:26:02;100502.00;;;0.20
75822;BMP180;64454;51.984;9.838;2023-04-06T04:28:29;100505.00;;;0.00
75822;BMP180;64454;51.984;9.838;2023-04-06T04:30:56;100492.00;;;0.50
75822;BMP180;64454;51.984;9.838;2023-04-06T04:33:24;100500.00;;;0.30
75822;BMP180;64454;51.984;9.838;2023-04-06T04:35:51;100506.00;;;0.10
75822;BMP180;64454;51.984;9.838;2023-04-06T04:38:18;100499.00;;;-0.30
75822;BMP180;64454;51.984;9.838;2023-04-06T04:40:45;100491.00;;;0.40
75822;BMP180;64454;51.984;9.838;2023-04-06T04:43:11;100490.00;;;0.50
75822;BMP180;64454;51.984;9.838;2023-04-06T04:45:38;100492.00;;;0.50
75822;BMP180;64454;51.984;9.838;2023-04-06T04:48:05;100493.00;;;0.50
75822;BMP180;64454;51.984;9.838;2023-04-06T04:50:35;100495.00;;;0.00
75822;BMP180;64454;51.984;9.838;2023-04-06T04:53:02;100503.00;;;0.10
75822;BMP180;64454;51.984;9.838;2023-04-06T04:55:30;100497.00;;;0.50
75822;BMP180;64454;51.984;9.838;2023-04-06T04:57:57;100496.00;;;0.30
75822;BMP180;64454;51.984;9.838;2023-04-06T05:00:24;100485.00;;;0.50
75822;BMP180;64454;51.984;9.838;2023-04-06T05:02:51;100486.00;;;0.20
75822;BMP180;64454;51.984;9.838;2023-04-06T05:05:18;100492.00;;;0.20
75822;BMP180;64454;51.984;9.838;2023-04-06T05:07:46;100493.00;;;0.40
75822;BMP180;64454;51.984;9.838;2023-04-06T05:10:13;100489.00;;;0.20
75822;BMP180;64454;51.984;9.838;2023-04-06T05:12:40;100493.00;;;0.20
75822;BMP180;64454;51.984;9.838;2023-04-06T05:15:09;100493.00;;;0.30
75822;BMP180;64454;51.984;9.838;2023-04-06T05:17:36;100499.00;;;0.20
75822;BMP180;64454;51.984;9.838;2023-04-06T05:20:04;100496.00;;;0.20
75822;BMP180;64454;51.984;9.838;2023-04-06T05:22:30;100492.00;;;0.50
75822;BMP180;64454;51.984;9.838;2023-04-06T05:24:59;100493.00;;;0.30
75822;BMP180;64454;51.984;9.838;2023-04-06T05:27:25;100499.00;;;0.40
75822;BMP180;64454;51.984;9.838;2023-04-06T05:29:52;100484.00;;;0.50
75822;BMP180;64454;51.984;9.838;2023-04-06T05:32:19;100485.00;;;0.40
75822;BMP180;64454;51.984;9.838;2023-04-06T05:34:48;100480.00;;;0.50
75822;BMP180;64454;51.984;9.838;2023-04-06T05:37:15;100486.00;;;0.60
75822;BMP180;64454;51.984;9.838;2023-04-06T05:39:42;100485.00;;;0.80
75822;BMP180;64454;51.984;9.838;2023-04-06T05:42:10;100492.00;;;0.90
75822;BMP180;64454;51.984;9.838;2023-04-06T05:44:37;100493.00;;;0.90
75822;BMP180;64454;51.984;9.838;2023-04-06T05:47:05;100484.00;;;0.80
75822;BMP180;64454;51.984;9.838;2023-04-06T05:49:31;100490.00;;;1.20
75822;BMP180;64454;51.984;9.838;2023-04-06T05:51:58;100491.00;;;1.00
75822;BMP180;64454;51.984;9.838;2023-04-06T05:54:25;100491.00;;;1.20
75822;BMP180;64454;51.984;9.838;2023-04-06T05:56:52;100492.00;;;1.20
75822;BMP180;64454;51.984;9.838;2023-04-06T05:59:20;100478.00;;;1.40
75822;BMP180;64454;51.984;9.838;2023-04-06T06:01:47;100484.00;;;1.10
75822;BMP180;64454;51.984;9.838;2023-04-06T06:04:16;100480.00;;;1.30
75822;BMP180;64454;51.984;9.838;2023-04-06T06:06:43;100474.00;;;1.50
75822;BMP180;64454;51.984;9.838;2023-04-06T06:09:10;100478.00;;;1.40
75822;BMP180;64454;51.984;9.838;2023-04-06T06:11:37;100482.00;;;1.60
75822;BMP180;64454;51.984;9.838;2023-04-06T06:14:04;100485.00;;;1.80
75822;BMP180;64454;51.984;9.838;2023-04-06T06:16:32;100477.00;;;2.00
75822;BMP180;64454;51.984;9.838;2023-04-06T06:18:59;100472.00;;;2.10
75822;BMP180;64454;51.984;9.838;2023-04-06T06:21:26;100470.00;;;2.20
75822;BMP180;64454;51.984;9.838;2023-04-06T06:23:53;100471.00;;;2.50
75822;BMP180;64454;51.984;9.838;2023-04-06T06:26:20;100477.00;;;2.60
75822;BMP180;64454;51.984;9.838;2023-04-06T06:28:47;100476.00;;;2.80
75822;BMP180;64454;51.984;9.838;2023-04-06T06:31:14;100475.00;;;3.10
75822;BMP180;64454;51.984;9.838;2023-04-06T06:33:43;100475.00;;;3.20
75822;BMP180;64454;51.984;9.838;2023-04-06T06:36:10;100469.00;;;3.30
75822;BMP180;64454;51.984;9.838;2023-04-06T06:38:36;100469.00;;;3.30
75822;BMP180;64454;51.984;9.838;2023-04-06T06:41:04;100469.00;;;3.40
75822;BMP180;64454;51.984;9.838;2023-04-06T06:43:31;100469.00;;;3.60
75822;BMP180;64454;51.984;9.838;2023-04-06T06:45:58;100466.00;;;3.90
75822;BMP180;64454;51.984;9.838;2023-04-06T06:48:25;100476.00;;;4.00
75822;BMP180;64454;51.984;9.838;2023-04-06T06:50:53;100475.00;;;4.00
75822;BMP180;64454;51.984;9.838;2023-04-06T06:53:20;100474.00;;;4.10
75822;BMP180;64454;51.984;9.838;2023-04-06T06:55:47;100473.00;;;4.30
75822;BMP180;64454;51.984;9.838;2023-04-06T06:58:14;100471.00;;;4.20
75822;BMP180;64454;51.984;9.838;2023-04-06T07:00:41;100479.00;;;4.20
75822;BMP180;64454;51.984;9.838;2023-04-06T07:03:07;100466.00;;;4.40
75822;BMP180;64454;51.984;9.838;2023-04-06T07:05:34;100467.00;;;4.70
75822;BMP180;64454;51.984;9.838;2023-04-06T07:08:03;100465.00;;;4.60
75822;BMP180;64454;51.984;9.838;2023-04-06T07:10:30;100476.00;;;4.60
75822;BMP180;64454;51.984;9.838;2023-04-06T07:12:57;100478.00;;;4.70
75822;BMP180;64454;51.984;9.838;2023-04-06T07:15:24;100470.00;;;4.90
75822;BMP180;64454;51.984;9.838;2023-04-06T07:17:50;100472.00;;;5.10
75822;BMP180;64454;51.984;9.838;2023-04-06T07:20:17;100470.00;;;5.10
75822;BMP180;64454;51.984;9.838;2023-04-06T07:22:44;100467.00;;;5.00
75822;BMP180;64454;51.984;9.838;2023-04-06T07:25:13;100469.00;;;5.20
75822;BMP180;64454;51.984;9.838;2023-04-06T07:27:39;100466.00;;;5.30
75822;BMP180;64454;51.984;9.838;2023-04-06T07:30:08;100465.00;;;5.20
75822;BMP180;64454;51.984;9.838;2023-04-06T07:32:35;100468.00;;;5.50
75822;BMP180;64454;51.984;9.838;2023-04-06T07:35:02;100470.00;;;5.50
75822;BMP180;64454;51.984;9.838;2023-04-06T07:37:29;100463.00;;;5.50
75822;BMP180;64454;51.984;9.838;2023-04-06T07:39:56;100470.00;;;5.40
75822;BMP180;64454;51.984;9.838;2023-04-06T07:42:24;100463.00;;;5.60
75822;BMP180;64454;51.984;9.838;2023-04-06T07:44:51;100467.00;;;6.40
75822;BMP180;64454;51.984;9.838;2023-04-06T07:47:17;100463.00;;;6.70
75822;BMP180;64454;51.984;9.838;2023-04-06T07:49:44;100450.00;;;7.20
75822;BMP180;64454;51.984;9.838;2023-04-06T07:52:11;100464.00;;;6.90
75822;BMP180;64454;51.984;9.838;2023-04-06T07:54:40;100455.00;;;7.00
75822;BMP180;64454;51.984;9.838;2023-04-06T07:57:06;100462.00;;;7.60
75822;BMP180;64454;51.984;9.838;2023-04-06T07:59:35;100459.00;;;7.50
75822;BMP180;64454;51.984;9.838;2023-04-06T08:02:01;100444.00;;;7.70
75822;BMP180;64454;51.984;9.838;2023-04-06T08:04:28;100448.00;;;8.00
75822;BMP180;64454;51.984;9.838;2023-04-06T08:06:55;100443.00;;;9.00
75822;BMP180;64454;51.984;9.838;2023-04-06T08:09:22;100454.00;;;9.30
75822;BMP180;64454;51.984;9.838;2023-04-06T08:11:49;100444.00;;;9.30
75822;BMP180;64454;51.984;9.838;2023-04-06T08:14:16;100445.00;;;10.50
75822;BMP180;64454;51.984;9.838;2023-04-06T08:16:45;100446.00;;;10.10
75822;BMP180;64454;51.984;9.838;2023-04-06T08:19:12;100436.00;;;9.40
75822;BMP180;64454;51.984;9.838;2023-04-06T08:21:39;100442.00;;;10.90
75822;BMP180;64454;51.984;9.838;2023-04-06T08:24:06;100433.00;;;10.10
75822;BMP180;64454;51.984;9.838;2023-04-06T08:26:33;100433.00;;;10.60
75822;BMP180;64454;51.984;9.838;2023-04-06T08:29:00;100435.00;;;11.40
75822;BMP180;64454;51.984;9.838;2023-04-06T08:31:30;100438.00;;;11.80
75822;BMP180;64454;51.984;9.838;2023-04-06T08:33:58;100437.00;;;11.00
75822;BMP180;64454;51.984;9.838;2023-04-06T08:36:25;100430.00;;;11.60
75822;BMP180;64454;51.984;9.838;2023-04-06T08:38:52;100426.00;;;12.50
75822;BMP180;64454;51.984;9.838;2023-04-06T08:41:19;100425.00;;;14.60
75822;BMP180;64454;51.984;9.838;2023-04-06T08:43:49;100433.00;;;14.40
75822;BMP180;64454;51.984;9.838;2023-04-06T08:46:17;100429.00;;;14.80
75822;BMP180;64454;51.984;9.838;2023-04-06T08:48:46;100424.00;;;13.80
75822;BMP180;64454;51.984;9.838;2023-04-06T08:51:18;100429.00;;;14.80
75822;BMP180;64454;51.984;9.838;2023-04-06T08:53:46;100420.00;;;15.10
75822;BMP180;64454;51.984;9.838;2023-04-06T08:56:14;100416.00;;;13.40
75822;BMP180;64454;51.984;9.838;2023-04-06T08:58:42;100426.00;;;13.10
75822;BMP180;64454;51.984;9.838;2023-04-06T09:01:13;100415.00;;;13.90
75822;BMP180;64454;51.984;9.838;2023-04-06T09:03:41;100416.00;;;13.20
75822;BMP180;64454;51.984;9.838;2023-04-06T09:06:10;100424.00;;;14.70
75822;BMP180;64454;51.984;9.838;2023-04-06T09:08:41;100431.00;;;14.10
75822;BMP180;64454;51.984;9.838;2023-04-06T09:11:08;100423.00;;;14.70
75822;BMP180;64454;51.984;9.838;2023-04-06T09:13:46;100419.00;;;15.40
75822;BMP180;64454;51.984;9.838;2023-04-06T09:16:14;100415.00;;;14.80
75822;BMP180;64454;51.984;9.838;2023-04-06T09:18:41;100421.00;;;15.50
75822;BMP180;64454;51.984;9.838;2023-04-06T09:21:10;100423.00;;;15.10
75822;BMP180;64454;51.984;9.838;2023-04-06T09:23:38;100425.00;;;14.90
75822;BMP180;64454;51.984;9.838;2023-04-06T09:26:11;100414.00;;;16.30
75822;BMP180;64454;51.984;9.838;2023-04-06T09:28:47;100431.00;;;19.00
75822;BMP180;64454;51.984;9.838;2023-04-06T09:31:15;100422.00;;;18.60
75822;BMP180;64454;51.984;9.838;2023-04-06T09:33:45;100421.00;;;17.80
75822;BMP180;64454;51.984;9.838;2023-04-06T09:36:12;100412.00;;;19.60
75822;BMP180;64454;51.984;9.838;2023-04-06T09:38:54;100409.00;;;19.70
75822;BMP180;64454;51.984;9.838;2023-04-06T09:41:23;100410.00;;;16.70
75822;BMP180;64454;51.984;9.838;2023-04-06T09:43:51;100406.00;;;18.40
75822;BMP180;64454;51.984;9.838;2023-04-06T09:46:21;100405.00;;;17.40
75822;BMP180;64454;51.984;9.838;2023-04-06T09:48:49;100403.00;;;17.70
75822;BMP180;64454;51.984;9.838;2023-04-06T09:51:19;100399.00;;;17.10
75822;BMP180;64454;51.984;9.838;2023-04-06T09:53:53;100405.00;;;16.90
75822;BMP180;64454;51.984;9.838;2023-04-06T09:56:28;100408.00;;;17.40
75822;BMP180;64454;51.984;9.838;2023-04-06T09:59:02;100398.00;;;16.80
75822;BMP180;64454;51.984;9.838;2023-04-06T10:01:33;100401.00;;;18.80
75822;BMP180;64454;51.984;9.838;2023-04-06T10:04:17;100396.00;;;17.80
75822;BMP180;64454;51.984;9.838;2023-04-06T10:06:47;100393.00;;;19.50
75822;BMP180;64454;51.984;9.838;2023-04-06T10:09:25;100392.00;;;19.20
75822;BMP180;64454;51.984;9.838;2023-04-06T10:11:54;100396.00;;;18.30
75822;BMP180;64454;51.984;9.838;2023-04-06T10:14:21;100384.00;;;17.90
75822;BMP180;64454;51.984;9.838;2023-04-06T10:16:48;100386.00;;;16.90
75822;BMP180;64454;51.984;9.838;2023-04-06T10:19:23;100387.00;;;17.70
75822;BMP180;64454;51.984;9.838;2023-04-06T10:21:55;100389.00;;;16.80
75822;BMP180;64454;51.984;9.838;2023-04-06T10:24:25;100383.00;;;20.10
75822;BMP180;64454;51.984;9.838;2023-04-06T10:26:58;100390.00;;;19.10
75822;BMP180;64454;51.984;9.838;2023-04-06T10:29:25;100381.00;;;19.50
75822;BMP180;64454;51.984;9.838;2023-04-06T10:31:52;100395.00;;;18.90
75822;BMP180;64454;51.984;9.838;2023-04-06T10:34:21;100391.00;;;16.80
75822;BMP180;64454;51.984;9.838;2023-04-06T10:36:48;100381.00;;;17.80
75822;BMP180;64454;51.984;9.838;2023-04-06T10:39:25;100381.00;;;18.00
75822;BMP180;64454;51.984;9.838;2023-04-06T10:41:53;100377.00;;;19.30
75822;BMP180;64454;51.984;9.838;2023-04-06T10:44:22;100378.00;;;20.10
75822;BMP180;64454;51.984;9.838;2023-04-06T10:46:57;100382.00;;;20.40
75822;BMP180;64454;51.984;9.838;2023-04-06T11:41:01;100349.00;;;18.20
75822;BMP180;64454;51.984;9.838;2023-04-06T11:43:30;100340.00;;;17.20
75822;BMP180;64454;51.984;9.838;2023-04-06T11:46:02;100338.00;;;17.80
75822;BMP180;64454;51.984;9.838;2023-04-06T11:48:30;100339.00;;;19.10
75822;BMP180;64454;51.984;9.838;2023-04-06T11:50:59;100346.00;;;18.40
75822;BMP180;64454;51.984;9.838;2023-04-06T11:53:31;100337.00;;;18.30
75822;BMP180;64454;51.984;9.838;2023-04-06T11:56:02;100335.00;;;17.40
75822;BMP180;64454;51.984;9.838;2023-04-06T11:58:30;100333.00;;;18.40
75822;BMP180;64454;51.984;9.838;2023-04-06T12:01:03;100333.00;;;20.70
75822;BMP180;64454;51.984;9.838;2023-04-06T12:03:30;100331.00;;;21.40
75822;BMP180;64454;51.984;9.838;2023-04-06T12:05:57;100330.00;;;19.20
75822;BMP180;64454;51.984;9.838;2023-04-06T12:08:24;100330.00;;;18.40
75822;BMP180;64454;51.984;9.838;2023-04-06T12:10:51;100318.00;;;17.50
75822;BMP180;64454;51.984;9.838;2023-04-06T12:13:19;100330.00;;;16.70
75822;BMP180;64454;51.984;9.838;2023-04-06T12:15:46;100321.00;;;17.40
75822;BMP180;64454;51.984;9.838;2023-04-06T12:18:13;100325.00;;;19.80
75822;BMP180;64454;51.984;9.838;2023-04-06T12:20:40;100309.00;;;20.70
75822;BMP180;64454;51.984;9.838;2023-04-06T12:23:07;100301.00;;;21.30
75822;BMP180;64454;51.984;9.838;2023-04-06T12:25:34;100314.00;;;20.30
75822;BMP180;64454;51.984;9.838;2023-04-06T12:31:43;100308.00;;;19.60
75822;BMP180;64454;51.984;9.838;2023-04-06T12:34:11;100296.00;;;18.40
75822;BMP180;64454;51.984;9.838;2023-04-06T12:36:38;100297.00;;;19.50
75822;BMP180;64454;51.984;9.838;2023-04-06T12:39:06;100306.00;;;16.60
75822;BMP180;64454;51.984;9.838;2023-04-06T12:41:33;100281.00;;;20.10
75822;BMP180;64454;51.984;9.838;2023-04-06T12:44:00;100306.00;;;17.50
75822;BMP180;64454;51.984;9.838;2023-04-06T12:46:27;100289.00;;;18.30
75822;BMP180;64454;51.984;9.838;2023-04-06T12:48:58;100291.00;;;19.20
75822;BMP180;64454;51.984;9.838;2023-04-06T12:51:27;100294.00;;;19.00
75822;BMP180;64454;51.984;9.838;2023-04-06T12:53:54;100273.00;;;19.80
75822;BMP180;64454;51.984;9.838;2023-04-06T12:56:21;100280.00;;;21.50
75822;BMP180;64454;51.984;9.838;2023-04-06T12:58:50;100278.00;;;21.00
75822;BMP180;64454;51.984;9.838;2023-04-06T13:01:18;100276.00;;;19.00
75822;BMP180;64454;51.984;9.838;2023-04-06T13:03:45;100269.00;;;17.90
75822;BMP180;64454;51.984;9.838;2023-04-06T13:06:13;100265.00;;;18.50
75822;BMP180;64454;51.984;9.838;2023-04-06T13:08:40;100262.00;;;18.50
75822;BMP180;64454;51.984;9.838;2023-04-06T13:11:07;100263.00;;;19.10
75822;BMP180;64454;51.984;9.838;2023-04-06T13:13:35;100262.00;;;20.40
75822;BMP180;64454;51.984;9.838;2023-04-06T13:16:05;100256.00;;;19.00
75822;BMP180;64454;51.984;9.838;2023-04-06T13:18:33;100261.00;;;19.10
75822;BMP180;64454;51.984;9.838;2023-04-06T13:21:02;100262.00;;;20.40
75822;BMP180;64454;51.984;9.838;2023-04-06T13:23:30;100265.00;;;19.50
75822;BMP180;64454;51.984;9.838;2023-04-06T13:25:59;100259.00;;;22.20
75822;BMP180;64454;51.984;9.838;2023-04-06T13:28:27;100266.00;;;20.70
75822;BMP180;64454;51.984;9.838;2023-04-06T13:30:54;100256.00;;;20.60
75822;BMP180;64454;51.984;9.838;2023-04-06T13:33:21;100252.00;;;19.40
75822;BMP180;64454;51.984;9.838;2023-04-06T13:35:48;100250.00;;;19.60
75822;BMP180;64454;51.984;9.838;2023-04-06T13:38:15;100242.00;;;20.60
75822;BMP180;64454;51.984;9.838;2023-04-06T13:40:43;100260.00;;;18.50
75822;BMP180;64454;51.984;9.838;2023-04-06T13:43:10;100248.00;;;17.90
75822;BMP180;64454;51.984;9.838;2023-04-06T13:45:38;100250.00;;;18.30
75822;BMP180;64454;51.984;9.838;2023-04-06T13:48:05;100242.00;;;18.30
75822;BMP180;64454;51.984;9.838;2023-04-06T13:50:33;100245.00;;;18.90
75822;BMP180;64454;51.984;9.838;2023-04-06T13:53:00;100247.00;;;18.40
75822;BMP180;64454;51.984;9.838;2023-04-06T13:55:27;100250.00;;;17.20
75822;BMP180;64454;51.984;9.838;2023-04-06T13:57:55;100238.00;;;17.00
75822;BMP180;64454;51.984;9.838;2023-04-06T14:00:22;100233.00;;;19.60
75822;BMP180;64454;51.984;9.838;2023-04-06T14:02:50;100230.00;;;19.60
75822;BMP180;64454;51.984;9.838;2023-04-06T14:05:17;100229.00;;;19.00
75822;BMP180;64454;51.984;9.838;2023-04-06T14:07:44;100233.00;;;17.70
75822;BMP180;64454;51.984;9.838;2023-04-06T14:10:11;100230.00;;;18.10
75822;BMP180;64454;51.984;9.838;2023-04-06T14:12:40;100218.00;;;17.30
75822;BMP180;64454;51.984;9.838;2023-04-06T14:15:11;100234.00;;;17.00
75822;BMP180;64454;51.984;9.838;2023-04-06T14:17:38;100223.00;;;16.70
75822;BMP180;64454;51.984;9.838;2023-04-06T14:20:07;100229.00;;;16.50
75822;BMP180;64454;51.984;9.838;2023-04-06T14:22:39;100227.00;;;16.30
75822;BMP180;64454;51.984;9.838;2023-04-06T14:25:08;100216.00;;;16.50
75822;BMP180;64454;51.984;9.838;2023-04-06T14:27:35;100228.00;;;16.60
75822;BMP180;64454;51.984;9.838;2023-04-06T14:30:02;100230.00;;;15.90
75822;BMP180;64454;51.984;9.838;2023-04-06T14:32:31;100210.00;;;16.00
75822;BMP180;64454;51.984;9.838;2023-04-06T14:34:58;100219.00;;;16.90
75822;BMP180;64454;51.984;9.838;2023-04-06T14:37:24;100210.00;;;17.60
75822;BMP180;64454;51.984;9.838;2023-04-06T14:39:52;100207.00;;;17.40
75822;BMP180;64454;51.984;9.838;2023-04-06T14:42:18;100210.00;;;17.10
75822;BMP180;64454;51.984;9.838;2023-04-06T14:44:45;100213.00;;;17.40
75822;BMP180;64454;51.984;9.838;2023-04-06T14:47:14;100204.00;;;16.80
75822;BMP180;64454;51.984;9.838;2023-04-06T14:49:47;100208.00;;;18.00
75822;BMP180;64454;51.984;9.838;2023-04-06T14:52:13;100211.00;;;18.60
75822;BMP180;64454;51.984;9.838;2023-04-06T14:54:41;100205.00;;;17.20
75822;BMP180;64454;51.984;9.838;2023-04-06T14:57:08;100211.00;;;18.10
75822;BMP180;64454;51.984;9.838;2023-04-06T14:59:35;100209.00;;;18.30
75822;BMP180;64454;51.984;9.838;2023-04-06T15:02:03;100209.00;;;17.30